sensor_id;sensor_type;location;lat;lon;timestamp;P1;durP1;ratioP1;P2;durP2;ratioP2
63046;SDS011;62025;39.238;9.126;2023-03-03T00:01:39;11.80;;;9.18;;
63046;SDS011;62025;39.238;9.126;2023-03-03T00:04:06;11.32;;;9.15;;
63046;SDS011;62025;39.238;9.126;2023-03-03T00:06:32;13.63;;;9.70;;
63046;SDS011;62025;39.238;9.126;2023-03-03T00:08:58;11.73;;;9.18;;
63046;SDS011;62025;39.238;9.126;2023-03-03T00:11:24;11.85;;;8.18;;
63046;SDS011;62025;39.238;9.126;2023-03-03T00:13:51;10.13;;;7.75;;
63046;SDS011;62025;39.238;9.126;2023-03-03T00:16:22;10.45;;;7.75;;
63046;SDS011;62025;39.238;9.126;2023-03-03T00:18:53;10.48;;;7.40;;
63046;SDS011;62025;39.238;9.126;2023-03-03T00:26:39;8.90;;;6.95;;
63046;SDS011;62025;39.238;9.126;2023-03-03T00:35:27;13.10;;;8.55;;
63046;SDS011;62025;39.238;9.126;2023-03-03T00:38:00;12.48;;;8.48;;
63046;SDS011;62025;39.238;9.126;2023-03-03T00:40:37;12.88;;;9.82;;
63046;SDS011;62025;39.238;9.126;2023-03-03T00:43:38;16.15;;;10.40;;
63046;SDS011;62025;39.238;9.126;2023-03-03T00:46:01;19.75;;;10.52;;
63046;SDS011;62025;39.238;9.126;2023-03-03T00:48:40;12.73;;;9.32;;
63046;SDS011;62025;39.238;9.126;2023-03-03T00:51:28;12.65;;;9.20;;
63046;SDS011;62025;39.238;9.126;2023-03-03T00:53:56;14.00;;;10.05;;
63046;SDS011;62025;39.238;9.126;2023-03-03T00:56:24;18.23;;;10.30;;
63046;SDS011;62025;39.238;9.126;2023-03-03T00:58:51;15.98;;;10.52;;
63046;SDS011;62025;39.238;9.126;2023-03-03T01:01:20;17.77;;;10.48;;
63046;SDS011;62025;39.238;9.126;2023-03-03T01:03:50;14.48;;;10.68;;
63046;SDS011;62025;39.238;9.126;2023-03-03T01:06:16;14.65;;;9.30;;
63046;SDS011;62025;39.238;9.126;2023-03-03T01:08:42;12.27;;;8.93;;
63046;SDS011;62025;39.238;9.126;2023-03-03T01:11:10;11.85;;;8.52;;
63046;SDS011;62025;39.238;9.126;2023-03-03T01:13:41;12.57;;;8.27;;
63046;SDS011;62025;39.238;9.126;2023-03-03T01:16:09;12.68;;;7.50;;
63046;SDS011;62025;39.238;9.126;2023-03-03T01:18:35;10.23;;;7.28;;
63046;SDS011;62025;39.238;9.126;2023-03-03T01:21:02;12.65;;;7.25;;
63046;SDS011;62025;39.238;9.126;2023-03-03T01:23:30;9.07;;;7.38;;
63046;SDS011;62025;39.238;9.126;2023-03-03T01:25:57;9.05;;;7.25;;
63046;SDS011;62025;39.238;9.126;2023-03-03T01:28:23;12.93;;;7.88;;
63046;SDS011;62025;39.238;9.126;2023-03-03T01:30:50;14.57;;;8.30;;
63046;SDS011;62025;39.238;9.126;2023-03-03T01:33:16;10.23;;;7.85;;
63046;SDS011;62025;39.238;9.126;2023-03-03T01:35:44;12.02;;;7.97;;
63046;SDS011;62025;39.238;9.126;2023-03-03T01:38:11;11.63;;;7.72;;
63046;SDS011;62025;39.238;9.126;2023-03-03T01:40:39;10.20;;;7.20;;
63046;SDS011;62025;39.238;9.126;2023-03-03T01:43:06;11.27;;;7.95;;
63046;SDS011;62025;39.238;9.126;2023-03-03T01:45:41;9.80;;;7.07;;
63046;SDS011;62025;39.238;9.126;2023-03-03T01:48:39;11.30;;;7.03;;
63046;SDS011;62025;39.238;9.126;2023-03-03T01:51:12;14.40;;;7.50;;
63046;SDS011;62025;39.238;9.126;2023-03-03T01:53:57;12.20;;;7.90;;
63046;SDS011;62025;39.238;9.126;2023-03-03T01:56:26;11.25;;;7.25;;
63046;SDS011;62025;39.238;9.126;2023-03-03T01:58:57;10.05;;;6.75;;
63046;SDS011;62025;39.238;9.126;2023-03-03T02:01:34;9.48;;;7.03;;
63046;SDS011;62025;39.238;9.126;2023-03-03T02:04:00;8.73;;;6.60;;
63046;SDS011;62025;39.238;9.126;2023-03-03T02:06:28;9.27;;;6.93;;
63046;SDS011;62025;39.238;9.126;2023-03-03T02:12:31;11.90;;;7.60;;
63046;SDS011;62025;39.238;9.126;2023-03-03T02:18:01;10.68;;;6.97;;
63046;SDS011;62025;39.238;9.126;2023-03-03T02:26:25;8.10;;;6.28;;
63046;SDS011;62025;39.238;9.126;2023-03-03T02:28:59;11.20;;;6.77;;
63046;SDS011;62025;39.238;9.126;2023-03-03T02:31:28;7.80;;;5.80;;
63046;SDS011;62025;39.238;9.126;2023-03-03T02:33:55;7.85;;;5.43;;
63046;SDS011;62025;39.238;9.126;2023-03-03T02:36:23;6.43;;;5.35;;
63046;SDS011;62025;39.238;9.126;2023-03-03T02:47:22;7.00;;;4.43;;
63046;SDS011;62025;39.238;9.126;2023-03-03T02:49:48;5.13;;;4.20;;
63046;SDS011;62025;39.238;9.126;2023-03-03T02:52:16;8.45;;;4.90;;
63046;SDS011;62025;39.238;9.126;2023-03-03T02:54:44;5.78;;;4.10;;
63046;SDS011;62025;39.238;9.126;2023-03-03T02:57:11;5.50;;;4.30;;
63046;SDS011;62025;39.238;9.126;2023-03-03T02:59:37;6.78;;;5.03;;
63046;SDS011;62025;39.238;9.126;2023-03-03T03:02:10;6.90;;;4.90;;
63046;SDS011;62025;39.238;9.126;2023-03-03T03:04:36;7.40;;;5.00;;
63046;SDS011;62025;39.238;9.126;2023-03-03T03:07:03;7.25;;;5.20;;
63046;SDS011;62025;39.238;9.126;2023-03-03T03:09:31;7.68;;;5.00;;
63046;SDS011;62025;39.238;9.126;2023-03-03T03:11:58;4.75;;;4.30;;
63046;SDS011;62025;39.238;9.126;2023-03-03T03:14:29;5.80;;;4.35;;
63046;SDS011;62025;39.238;9.126;2023-03-03T03:16:55;6.15;;;4.40;;
63046;SDS011;62025;39.238;9.126;2023-03-03T03:19:21;4.72;;;4.00;;
63046;SDS011;62025;39.238;9.126;2023-03-03T03:21:47;6.82;;;4.20;;
63046;SDS011;62025;39.238;9.126;2023-03-03T03:24:15;5.63;;;4.20;;
63046;SDS011;62025;39.238;9.126;2023-03-03T03:26:46;4.95;;;3.70;;
63046;SDS011;62025;39.238;9.126;2023-03-03T03:29:12;5.97;;;3.75;;
63046;SDS011;62025;39.238;9.126;2023-03-03T03:31:39;5.10;;;3.95;;
63046;SDS011;62025;39.238;9.126;2023-03-03T03:34:05;7.50;;;4.22;;
63046;SDS011;62025;39.238;9.126;2023-03-03T03:36:32;8.82;;;4.20;;
63046;SDS011;62025;39.238;9.126;2023-03-03T03:38:59;10.57;;;4.20;;
63046;SDS011;62025;39.238;9.126;2023-03-03T03:41:27;5.95;;;3.63;;
63046;SDS011;62025;39.238;9.126;2023-03-03T03:43:54;5.78;;;3.55;;
63046;SDS011;62025;39.238;9.126;2023-03-03T03:46:21;4.15;;;3.63;;
63046;SDS011;62025;39.238;9.126;2023-03-03T03:48:47;6.20;;;3.75;;
63046;SDS011;62025;39.238;9.126;2023-03-03T03:51:17;4.95;;;3.78;;
63046;SDS011;62025;39.238;9.126;2023-03-03T03:53:43;6.78;;;4.25;;
63046;SDS011;62025;39.238;9.126;2023-03-03T03:56:10;6.07;;;4.03;;
63046;SDS011;62025;39.238;9.126;2023-03-03T03:58:36;6.18;;;4.43;;
63046;SDS011;62025;39.238;9.126;2023-03-03T04:01:07;5.43;;;3.58;;
63046;SDS011;62025;39.238;9.126;2023-03-03T04:03:38;5.50;;;3.97;;
63046;SDS011;62025;39.238;9.126;2023-03-03T04:06:08;6.28;;;3.90;;
63046;SDS011;62025;39.238;9.126;2023-03-03T04:08:34;4.35;;;3.70;;
63046;SDS011;62025;39.238;9.126;2023-03-03T04:11:02;8.63;;;4.10;;
63046;SDS011;62025;39.238;9.126;2023-03-03T04:13:28;8.40;;;4.15;;
63046;SDS011;62025;39.238;9.126;2023-03-03T04:15:57;5.85;;;3.92;;
63046;SDS011;62025;39.238;9.126;2023-03-03T04:18:23;6.53;;;3.58;;
63046;SDS011;62025;39.238;9.126;2023-03-03T04:20:49;5.78;;;3.90;;
63046;SDS011;62025;39.238;9.126;2023-03-03T04:23:17;5.68;;;3.67;;
63046;SDS011;62025;39.238;9.126;2023-03-03T04:25:45;4.63;;;3.20;;
63046;SDS011;62025;39.238;9.126;2023-03-03T04:28:14;4.43;;;3.38;;
63046;SDS011;62025;39.238;9.126;2023-03-03T04:30:44;5.35;;;3.28;;
63046;SDS011;62025;39.238;9.126;2023-03-03T04:33:12;5.50;;;3.40;;
63046;SDS011;62025;39.238;9.126;2023-03-03T04:35:39;3.80;;;3.25;;
63046;SDS011;62025;39.238;9.126;2023-03-03T04:38:05;6.50;;;3.72;;
63046;SDS011;62025;39.238;9.126;2023-03-03T04:40:33;8.25;;;3.85;;
63046;SDS011;62025;39.238;9.126;2023-03-03T04:43:00;5.55;;;3.70;;
63046;SDS011;62025;39.238;9.126;2023-03-03T04:45:26;5.90;;;3.80;;
63046;SDS011;62025;39.238;9.126;2023-03-03T04:47:53;5.38;;;3.75;;
63046;SDS011;62025;39.238;9.126;2023-03-03T04:50:19;5.03;;;3.63;;
63046;SDS011;62025;39.238;9.126;2023-03-03T04:52:45;3.80;;;2.97;;
63046;SDS011;62025;39.238;9.126;2023-03-03T04:55:12;6.80;;;3.03;;
63046;SDS011;62025;39.238;9.126;2023-03-03T04:57:39;5.63;;;3.45;;
63046;SDS011;62025;39.238;9.126;2023-03-03T05:00:06;4.63;;;2.80;;
63046;SDS011;62025;39.238;9.126;2023-03-03T05:02:33;4.95;;;2.60;;
63046;SDS011;62025;39.238;9.126;2023-03-03T05:05:00;6.20;;;2.92;;
63046;SDS011;62025;39.238;9.126;2023-03-03T05:07:25;6.65;;;3.13;;
63046;SDS011;62025;39.238;9.126;2023-03-03T05:09:52;5.32;;;2.88;;
63046;SDS011;62025;39.238;9.126;2023-03-03T05:12:17;6.60;;;2.65;;
63046;SDS011;62025;39.238;9.126;2023-03-03T05:14:44;6.72;;;2.65;;
63046;SDS011;62025;39.238;9.126;2023-03-03T05:17:10;4.50;;;2.70;;
63046;SDS011;62025;39.238;9.126;2023-03-03T05:19:36;4.35;;;2.60;;
63046;SDS011;62025;39.238;9.126;2023-03-03T05:22:02;5.80;;;2.95;;
63046;SDS011;62025;39.238;9.126;2023-03-03T05:24:29;3.35;;;2.58;;
63046;SDS011;62025;39.238;9.126;2023-03-03T05:26:55;3.22;;;2.75;;
63046;SDS011;62025;39.238;9.126;2023-03-03T05:29:21;4.68;;;2.70;;
63046;SDS011;62025;39.238;9.126;2023-03-03T05:31:47;4.95;;;3.00;;
63046;SDS011;62025;39.238;9.126;2023-03-03T05:34:13;4.15;;;2.85;;
63046;SDS011;62025;39.238;9.126;2023-03-03T05:36:40;2.90;;;2.60;;
63046;SDS011;62025;39.238;9.126;2023-03-03T05:39:06;4.53;;;2.92;;
63046;SDS011;62025;39.238;9.126;2023-03-03T05:41:32;4.18;;;3.00;;
63046;SDS011;62025;39.238;9.126;2023-03-03T05:44:01;4.88;;;2.80;;
63046;SDS011;62025;39.238;9.126;2023-03-03T05:46:28;5.15;;;2.97;;
63046;SDS011;62025;39.238;9.126;2023-03-03T05:48:54;6.68;;;2.85;;
63046;SDS011;62025;39.238;9.126;2023-03-03T05:51:20;3.45;;;2.55;;
63046;SDS011;62025;39.238;9.126;2023-03-03T05:53:46;4.40;;;3.10;;
63046;SDS011;62025;39.238;9.126;2023-03-03T05:56:12;7.97;;;3.45;;
63046;SDS011;62025;39.238;9.126;2023-03-03T05:58:38;5.13;;;3.33;;
63046;SDS011;62025;39.238;9.126;2023-03-03T06:01:04;4.60;;;2.75;;
63046;SDS011;62025;39.238;9.126;2023-03-03T06:03:30;5.18;;;2.92;;
63046;SDS011;62025;39.238;9.126;2023-03-03T06:05:57;6.47;;;3.40;;
63046;SDS011;62025;39.238;9.126;2023-03-03T06:08:23;4.35;;;3.20;;
63046;SDS011;62025;39.238;9.126;2023-03-03T06:10:49;9.45;;;3.30;;
63046;SDS011;62025;39.238;9.126;2023-03-03T06:13:15;7.57;;;3.50;;
63046;SDS011;62025;39.238;9.126;2023-03-03T06:18:11;8.13;;;4.65;;
63046;SDS011;62025;39.238;9.126;2023-03-03T06:20:37;12.15;;;4.50;;
63046;SDS011;62025;39.238;9.126;2023-03-03T06:23:03;9.20;;;4.07;;
63046;SDS011;62025;39.238;9.126;2023-03-03T06:25:29;8.93;;;5.75;;
63046;SDS011;62025;39.238;9.126;2023-03-03T06:27:56;8.65;;;5.53;;
63046;SDS011;62025;39.238;9.126;2023-03-03T06:30:22;6.53;;;4.95;;
63046;SDS011;62025;39.238;9.126;2023-03-03T06:32:48;5.90;;;4.38;;
63046;SDS011;62025;39.238;9.126;2023-03-03T06:35:14;5.85;;;4.38;;
63046;SDS011;62025;39.238;9.126;2023-03-03T06:37:40;5.47;;;4.28;;
63046;SDS011;62025;39.238;9.126;2023-03-03T06:40:06;7.25;;;4.43;;
63046;SDS011;62025;39.238;9.126;2023-03-03T06:42:33;9.82;;;5.82;;
63046;SDS011;62025;39.238;9.126;2023-03-03T06:44:59;8.95;;;5.95;;
63046;SDS011;62025;39.238;9.126;2023-03-03T06:47:25;8.88;;;5.55;;
63046;SDS011;62025;39.238;9.126;2023-03-03T06:49:51;10.93;;;5.43;;
63046;SDS011;62025;39.238;9.126;2023-03-03T06:52:19;11.80;;;5.53;;
63046;SDS011;62025;39.238;9.126;2023-03-03T06:54:49;13.13;;;5.85;;
63046;SDS011;62025;39.238;9.126;2023-03-03T07:00:40;7.88;;;5.10;;
63046;SDS011;62025;39.238;9.126;2023-03-03T07:03:00;7.50;;;4.70;;
63046;SDS011;62025;39.238;9.126;2023-03-03T07:05:37;7.15;;;4.13;;
63046;SDS011;62025;39.238;9.126;2023-03-03T07:08:05;10.65;;;4.90;;
63046;SDS011;62025;39.238;9.126;2023-03-03T07:10:43;6.80;;;4.30;;
63046;SDS011;62025;39.238;9.126;2023-03-03T07:15:45;10.90;;;3.92;;
63046;SDS011;62025;39.238;9.126;2023-03-03T07:21:16;8.10;;;4.07;;
63046;SDS011;62025;39.238;9.126;2023-03-03T07:23:45;7.82;;;4.30;;
63046;SDS011;62025;39.238;9.126;2023-03-03T07:26:15;10.00;;;4.93;;
63046;SDS011;62025;39.238;9.126;2023-03-03T07:33:59;6.20;;;3.70;;
63046;SDS011;62025;39.238;9.126;2023-03-03T07:38:53;7.88;;;2.60;;
63046;SDS011;62025;39.238;9.126;2023-03-03T07:41:23;4.70;;;2.45;;
63046;SDS011;62025;39.238;9.126;2023-03-03T07:43:53;5.05;;;2.15;;
63046;SDS011;62025;39.238;9.126;2023-03-03T07:49:01;6.00;;;1.80;;
63046;SDS011;62025;39.238;9.126;2023-03-03T07:51:56;5.20;;;2.67;;
63046;SDS011;62025;39.238;9.126;2023-03-03T07:54:26;5.70;;;2.42;;
63046;SDS011;62025;39.238;9.126;2023-03-03T08:10:35;5.95;;;3.30;;
63046;SDS011;62025;39.238;9.126;2023-03-03T08:13:53;4.07;;;3.15;;
63046;SDS011;62025;39.238;9.126;2023-03-03T08:16:17;5.40;;;2.80;;
63046;SDS011;62025;39.238;9.126;2023-03-03T08:19:05;8.18;;;3.70;;
63046;SDS011;62025;39.238;9.126;2023-03-03T08:21:32;4.40;;;2.83;;
63046;SDS011;62025;39.238;9.126;2023-03-03T08:24:00;6.68;;;3.05;;
63046;SDS011;62025;39.238;9.126;2023-03-03T08:26:27;6.75;;;3.13;;
63046;SDS011;62025;39.238;9.126;2023-03-03T08:28:53;6.03;;;2.85;;
63046;SDS011;62025;39.238;9.126;2023-03-03T08:31:20;5.60;;;2.97;;
63046;SDS011;62025;39.238;9.126;2023-03-03T08:33:46;7.05;;;3.38;;
63046;SDS011;62025;39.238;9.126;2023-03-03T08:36:12;4.05;;;3.10;;
63046;SDS011;62025;39.238;9.126;2023-03-03T08:38:39;4.10;;;3.05;;
63046;SDS011;62025;39.238;9.126;2023-03-03T08:41:05;3.70;;;2.80;;
63046;SDS011;62025;39.238;9.126;2023-03-03T08:43:32;5.78;;;2.38;;
63046;SDS011;62025;39.238;9.126;2023-03-03T08:46:00;7.10;;;2.60;;
63046;SDS011;62025;39.238;9.126;2023-03-03T08:48:29;3.38;;;2.67;;
63046;SDS011;62025;39.238;9.126;2023-03-03T08:50:56;3.63;;;2.40;;
63046;SDS011;62025;39.238;9.126;2023-03-03T08:53:23;5.05;;;2.67;;
63046;SDS011;62025;39.238;9.126;2023-03-03T08:55:50;5.22;;;3.55;;
63046;SDS011;62025;39.238;9.126;2023-03-03T08:58:16;4.18;;;2.92;;
63046;SDS011;62025;39.238;9.126;2023-03-03T09:00:44;6.10;;;2.55;;
63046;SDS011;62025;39.238;9.126;2023-03-03T09:03:16;4.57;;;2.42;;
63046;SDS011;62025;39.238;9.126;2023-03-03T09:05:42;3.70;;;2.65;;
63046;SDS011;62025;39.238;9.126;2023-03-03T09:08:09;5.93;;;2.60;;
63046;SDS011;62025;39.238;9.126;2023-03-03T09:10:36;3.85;;;2.40;;
63046;SDS011;62025;39.238;9.126;2023-03-03T09:13:16;3.42;;;2.33;;
63046;SDS011;62025;39.238;9.126;2023-03-03T09:15:44;5.55;;;2.60;;
63046;SDS011;62025;39.238;9.126;2023-03-03T09:18:18;4.63;;;2.60;;
63046;SDS011;62025;39.238;9.126;2023-03-03T09:20:57;3.97;;;2.70;;
63046;SDS011;62025;39.238;9.126;2023-03-03T09:28:57;6.78;;;2.75;;
63046;SDS011;62025;39.238;9.126;2023-03-03T09:31:41;5.32;;;2.63;;
63046;SDS011;62025;39.238;9.126;2023-03-03T09:39:48;5.90;;;2.53;;
63046;SDS011;62025;39.238;9.126;2023-03-03T09:48:29;4.38;;;2.00;;
63046;SDS011;62025;39.238;9.126;2023-03-03T09:57:31;2.30;;;1.70;;
63046;SDS011;62025;39.238;9.126;2023-03-03T10:02:49;3.28;;;1.60;;
63046;SDS011;62025;39.238;9.126;2023-03-03T10:08:31;3.53;;;1.60;;
63046;SDS011;62025;39.238;9.126;2023-03-03T10:11:31;1.98;;;1.77;;
63046;SDS011;62025;39.238;9.126;2023-03-03T10:17:51;4.90;;;2.13;;
63046;SDS011;62025;39.238;9.126;2023-03-03T10:20:43;5.00;;;1.98;;
63046;SDS011;62025;39.238;9.126;2023-03-03T10:35:05;2.00;;;1.80;;
63046;SDS011;62025;39.238;9.126;2023-03-03T10:38:17;4.63;;;1.80;;
63046;SDS011;62025;39.238;9.126;2023-03-03T10:58:25;3.42;;;2.13;;
63046;SDS011;62025;39.238;9.126;2023-03-03T11:07:18;2.72;;;1.65;;
63046;SDS011;62025;39.238;9.126;2023-03-03T11:15:57;3.83;;;2.05;;
63046;SDS011;62025;39.238;9.126;2023-03-03T11:27:57;3.78;;;1.98;;
63046;SDS011;62025;39.238;9.126;2023-03-03T11:30:47;3.22;;;1.65;;
63046;SDS011;62025;39.238;9.126;2023-03-03T11:36:17;4.38;;;1.80;;
63046;SDS011;62025;39.238;9.126;2023-03-03T11:38:55;1.98;;;1.70;;
63046;SDS011;62025;39.238;9.126;2023-03-03T11:45:18;2.47;;;1.75;;
63046;SDS011;62025;39.238;9.126;2023-03-03T11:48:15;2.22;;;1.50;;
63046;SDS011;62025;39.238;9.126;2023-03-03T11:50:54;2.45;;;1.40;;
63046;SDS011;62025;39.238;9.126;2023-03-03T11:53:33;2.33;;;1.60;;
63046;SDS011;62025;39.238;9.126;2023-03-03T11:56:06;3.13;;;1.63;;
63046;SDS011;62025;39.238;9.126;2023-03-03T11:59:13;4.00;;;1.48;;
63046;SDS011;62025;39.238;9.126;2023-03-03T12:02:14;3.42;;;1.50;;
63046;SDS011;62025;39.238;9.126;2023-03-03T12:08:21;2.55;;;1.40;;
63046;SDS011;62025;39.238;9.126;2023-03-03T12:25:44;1.98;;;1.30;;
63046;SDS011;62025;39.238;9.126;2023-03-03T12:28:31;1.67;;;1.30;;
63046;SDS011;62025;39.238;9.126;2023-03-03T12:34:54;1.95;;;1.30;;
63046;SDS011;62025;39.238;9.126;2023-03-03T12:37:39;3.35;;;1.30;;
63046;SDS011;62025;39.238;9.126;2023-03-03T12:46:17;2.53;;;1.30;;
63046;SDS011;62025;39.238;9.126;2023-03-03T12:49:05;4.03;;;1.30;;
63046;SDS011;62025;39.238;9.126;2023-03-03T12:57:34;3.35;;;1.52;;
63046;SDS011;62025;39.238;9.126;2023-03-03T13:19:58;2.45;;;1.10;;
63046;SDS011;62025;39.238;9.126;2023-03-03T13:22:36;2.40;;;1.20;;
63046;SDS011;62025;39.238;9.126;2023-03-03T13:28:04;2.33;;;1.30;;
63046;SDS011;62025;39.238;9.126;2023-03-03T13:31:11;2.42;;;1.30;;
63046;SDS011;62025;39.238;9.126;2023-03-03T13:33:47;1.95;;;1.40;;
63046;SDS011;62025;39.238;9.126;2023-03-03T13:36:20;2.10;;;1.20;;
63046;SDS011;62025;39.238;9.126;2023-03-03T13:39:18;2.35;;;1.40;;
63046;SDS011;62025;39.238;9.126;2023-03-03T13:45:02;3.47;;;1.48;;
63046;SDS011;62025;39.238;9.126;2023-03-03T13:56:01;2.67;;;1.60;;
63046;SDS011;62025;39.238;9.126;2023-03-03T14:07:56;3.20;;;1.70;;
63046;SDS011;62025;39.238;9.126;2023-03-03T14:10:30;3.10;;;1.50;;
63046;SDS011;62025;39.238;9.126;2023-03-03T14:13:01;4.28;;;1.73;;
63046;SDS011;62025;39.238;9.126;2023-03-03T14:21:39;3.88;;;1.55;;
63046;SDS011;62025;39.238;9.126;2023-03-03T14:30:44;3.47;;;1.63;;
63046;SDS011;62025;39.238;9.126;2023-03-03T14:35:34;3.63;;;1.55;;
63046;SDS011;62025;39.238;9.126;2023-03-03T14:38:36;2.58;;;1.65;;
63046;SDS011;62025;39.238;9.126;2023-03-03T14:43:42;3.00;;;1.45;;
63046;SDS011;62025;39.238;9.126;2023-03-03T14:46:46;3.35;;;2.00;;
63046;SDS011;62025;39.238;9.126;2023-03-03T14:49:33;2.55;;;1.45;;
63046;SDS011;62025;39.238;9.126;2023-03-03T14:54:50;2.40;;;1.50;;
63046;SDS011;62025;39.238;9.126;2023-03-03T15:00:00;3.65;;;1.45;;
63046;SDS011;62025;39.238;9.126;2023-03-03T15:16:23;2.63;;;1.50;;
63046;SDS011;62025;39.238;9.126;2023-03-03T15:21:25;1.23;;;1.13;;
63046;SDS011;62025;39.238;9.126;2023-03-03T15:24:00;5.03;;;1.40;;
63046;SDS011;62025;39.238;9.126;2023-03-03T15:26:51;2.00;;;1.48;;
63046;SDS011;62025;39.238;9.126;2023-03-03T15:34:54;5.97;;;1.63;;
63046;SDS011;62025;39.238;9.126;2023-03-03T15:38:16;3.60;;;1.50;;
63046;SDS011;62025;39.238;9.126;2023-03-03T15:41:25;3.60;;;1.45;;
63046;SDS011;62025;39.238;9.126;2023-03-03T15:44:20;2.80;;;1.48;;
63046;SDS011;62025;39.238;9.126;2023-03-03T15:50:20;1.40;;;1.30;;
63046;SDS011;62025;39.238;9.126;2023-03-03T15:52:55;2.40;;;1.50;;
63046;SDS011;62025;39.238;9.126;2023-03-03T16:02:19;3.92;;;1.50;;
63046;SDS011;62025;39.238;9.126;2023-03-03T16:07:51;2.72;;;1.98;;
63046;SDS011;62025;39.238;9.126;2023-03-03T16:13:42;1.73;;;1.58;;
63046;SDS011;62025;39.238;9.126;2023-03-03T16:27:28;2.25;;;1.50;;
63046;SDS011;62025;39.238;9.126;2023-03-03T16:33:26;3.08;;;1.50;;
63046;SDS011;62025;39.238;9.126;2023-03-03T16:42:23;4.20;;;1.58;;
63046;SDS011;62025;39.238;9.126;2023-03-03T16:56:17;3.05;;;1.80;;
63046;SDS011;62025;39.238;9.126;2023-03-03T16:59:02;2.22;;;1.60;;
63046;SDS011;62025;39.238;9.126;2023-03-03T17:14:37;2.13;;;1.80;;
63046;SDS011;62025;39.238;9.126;2023-03-03T17:17:30;6.13;;;3.53;;
63046;SDS011;62025;39.238;9.126;2023-03-03T17:26:38;8.82;;;4.13;;
63046;SDS011;62025;39.238;9.126;2023-03-03T17:46:15;12.48;;;7.05;;
63046;SDS011;62025;39.238;9.126;2023-03-03T17:48:59;5.63;;;4.03;;
63046;SDS011;62025;39.238;9.126;2023-03-03T17:51:51;5.55;;;4.00;;
63046;SDS011;62025;39.238;9.126;2023-03-03T18:17:14;2.38;;;1.90;;
63046;SDS011;62025;39.238;9.126;2023-03-03T18:22:49;3.00;;;1.88;;
63046;SDS011;62025;39.238;9.126;2023-03-03T18:25:17;4.57;;;1.73;;
63046;SDS011;62025;39.238;9.126;2023-03-03T18:40:50;7.45;;;3.28;;
63046;SDS011;62025;39.238;9.126;2023-03-03T18:43:46;7.18;;;4.50;;
63046;SDS011;62025;39.238;9.126;2023-03-03T18:56:45;14.98;;;9.35;;
63046;SDS011;62025;39.238;9.126;2023-03-03T19:04:55;14.05;;;11.27;;
63046;SDS011;62025;39.238;9.126;2023-03-03T19:13:34;18.33;;;12.73;;
63046;SDS011;62025;39.238;9.126;2023-03-03T19:16:07;14.50;;;11.68;;
63046;SDS011;62025;39.238;9.126;2023-03-03T19:18:34;15.20;;;12.10;;
63046;SDS011;62025;39.238;9.126;2023-03-03T19:29:01;12.70;;;10.32;;
63046;SDS011;62025;39.238;9.126;2023-03-03T19:31:42;13.93;;;10.15;;
63046;SDS011;62025;39.238;9.126;2023-03-03T19:34:26;14.55;;;10.45;;
63046;SDS011;62025;39.238;9.126;2023-03-03T19:40:10;17.77;;;11.68;;
63046;SDS011;62025;39.238;9.126;2023-03-03T19:49:26;13.35;;;10.50;;
63046;SDS011;62025;39.238;9.126;2023-03-03T20:14:37;23.60;;;15.55;;
63046;SDS011;62025;39.238;9.126;2023-03-03T20:25:46;13.30;;;9.77;;
63046;SDS011;62025;39.238;9.126;2023-03-03T20:40:46;15.88;;;9.90;;
63046;SDS011;62025;39.238;9.126;2023-03-03T20:52:23;13.73;;;10.75;;
63046;SDS011;62025;39.238;9.126;2023-03-03T20:55:36;15.60;;;11.43;;
63046;SDS011;62025;39.238;9.126;2023-03-03T21:01:56;15.55;;;11.57;;
63046;SDS011;62025;39.238;9.126;2023-03-03T21:05:06;15.55;;;11.70;;
63046;SDS011;62025;39.238;9.126;2023-03-03T21:08:03;16.42;;;12.15;;
63046;SDS011;62025;39.238;9.126;2023-03-03T21:10:35;18.08;;;12.85;;
63046;SDS011;62025;39.238;9.126;2023-03-03T21:16:16;33.40;;;22.90;;
63046;SDS011;62025;39.238;9.126;2023-03-03T21:21:23;36.85;;;26.45;;
63046;SDS011;62025;39.238;9.126;2023-03-03T21:23:51;37.35;;;27.05;;
63046;SDS011;62025;39.238;9.126;2023-03-03T21:29:28;33.97;;;25.48;;
63046;SDS011;62025;39.238;9.126;2023-03-03T21:32:00;32.63;;;23.60;;
63046;SDS011;62025;39.238;9.126;2023-03-03T21:34:35;30.88;;;22.77;;
63046;SDS011;62025;39.238;9.126;2023-03-03T21:37:13;28.98;;;21.88;;
63046;SDS011;62025;39.238;9.126;2023-03-03T21:42:52;29.92;;;21.15;;
63046;SDS011;62025;39.238;9.126;2023-03-03T21:45:22;29.45;;;20.88;;
63046;SDS011;62025;39.238;9.126;2023-03-03T21:47:48;29.33;;;21.60;;
63046;SDS011;62025;39.238;9.126;2023-03-03T21:50:16;29.05;;;21.13;;
63046;SDS011;62025;39.238;9.126;2023-03-03T21:52:46;28.05;;;19.98;;
63046;SDS011;62025;39.238;9.126;2023-03-03T21:55:12;27.00;;;18.67;;
63046;SDS011;62025;39.238;9.126;2023-03-03T21:57:38;24.95;;;19.13;;
63046;SDS011;62025;39.238;9.126;2023-03-03T22:00:05;23.95;;;19.13;;
63046;SDS011;62025;39.238;9.126;2023-03-03T22:02:33;30.00;;;19.90;;
63046;SDS011;62025;39.238;9.126;2023-03-03T22:04:59;30.77;;;21.98;;
63046;SDS011;62025;39.238;9.126;2023-03-03T22:07:27;34.10;;;22.40;;
63046;SDS011;62025;39.238;9.126;2023-03-03T22:09:54;25.98;;;19.98;;
63046;SDS011;62025;39.238;9.126;2023-03-03T22:12:20;26.27;;;19.25;;
63046;SDS011;62025;39.238;9.126;2023-03-03T22:14:46;26.73;;;18.65;;
63046;SDS011;62025;39.238;9.126;2023-03-03T22:17:12;25.55;;;18.95;;
63046;SDS011;62025;39.238;9.126;2023-03-03T22:19:38;25.83;;;19.40;;
63046;SDS011;62025;39.238;9.126;2023-03-03T22:22:04;23.85;;;18.42;;
63046;SDS011;62025;39.238;9.126;2023-03-03T22:24:30;26.23;;;18.73;;
63046;SDS011;62025;39.238;9.126;2023-03-03T22:26:56;28.23;;;19.80;;
63046;SDS011;62025;39.238;9.126;2023-03-03T22:29:22;24.52;;;18.80;;
63046;SDS011;62025;39.238;9.126;2023-03-03T22:31:48;26.83;;;18.58;;
63046;SDS011;62025;39.238;9.126;2023-03-03T22:34:15;42.65;;;27.63;;
63046;SDS011;62025;39.238;9.126;2023-03-03T22:36:41;42.50;;;28.40;;
63046;SDS011;62025;39.238;9.126;2023-03-03T22:39:07;39.20;;;27.98;;
63046;SDS011;62025;39.238;9.126;2023-03-03T22:41:34;41.60;;;27.95;;
63046;SDS011;62025;39.238;9.126;2023-03-03T22:44:00;38.20;;;27.80;;
63046;SDS011;62025;39.238;9.126;2023-03-03T22:46:26;39.13;;;27.63;;
63046;SDS011;62025;39.238;9.126;2023-03-03T22:48:52;33.88;;;24.33;;
63046;SDS011;62025;39.238;9.126;2023-03-03T22:51:18;33.78;;;22.95;;
63046;SDS011;62025;39.238;9.126;2023-03-03T22:53:46;29.88;;;21.30;;
63046;SDS011;62025;39.238;9.126;2023-03-03T22:56:12;30.13;;;22.15;;
63046;SDS011;62025;39.238;9.126;2023-03-03T22:58:38;28.02;;;20.75;;
63046;SDS011;62025;39.238;9.126;2023-03-03T23:01:04;31.73;;;22.65;;
63046;SDS011;62025;39.238;9.126;2023-03-03T23:03:30;37.10;;;24.17;;
63046;SDS011;62025;39.238;9.126;2023-03-03T23:05:57;36.58;;;23.77;;
63046;SDS011;62025;39.238;9.126;2023-03-03T23:08:23;31.70;;;22.95;;
63046;SDS011;62025;39.238;9.126;2023-03-03T23:10:49;29.02;;;21.77;;
63046;SDS011;62025;39.238;9.126;2023-03-03T23:13:15;27.90;;;20.15;;
63046;SDS011;62025;39.238;9.126;2023-03-03T23:15:41;25.20;;;19.60;;
63046;SDS011;62025;39.238;9.126;2023-03-03T23:18:07;25.75;;;19.38;;
63046;SDS011;62025;39.238;9.126;2023-03-03T23:20:34;26.35;;;20.48;;
63046;SDS011;62025;39.238;9.126;2023-03-03T23:23:00;29.25;;;19.88;;
63046;SDS011;62025;39.238;9.126;2023-03-03T23:25:27;29.05;;;19.17;;
63046;SDS011;62025;39.238;9.126;2023-03-03T23:27:54;24.77;;;19.33;;
63046;SDS011;62025;39.238;9.126;2023-03-03T23:30:20;25.73;;;19.63;;
63046;SDS011;62025;39.238;9.126;2023-03-03T23:32:48;26.80;;;20.08;;
63046;SDS011;62025;39.238;9.126;2023-03-03T23:35:14;25.73;;;19.67;;
63046;SDS011;62025;39.238;9.126;2023-03-03T23:37:41;27.35;;;20.00;;
63046;SDS011;62025;39.238;9.126;2023-03-03T23:40:09;26.92;;;19.65;;
63046;SDS011;62025;39.238;9.126;2023-03-03T23:42:36;26.75;;;19.65;;